Cincinnati, Ohio
Traffic Map
Current Weather Conditions
Cincinnati, Ohio
Broken Clouds
Broken Clouds
62°
Feels Like: 62°
Wind Chill: 62° Ceiling: 8000
Heat Index: 62° Visibility: 7mi
Dew Point: 62° Wind: 0mph
Humidity: 100% Direction: ° ()
Pressure: 29.99in Gusts: 0mph
Raw Report DataKLUK 310953Z AUTO 00000KT 7SM BKN080 BKN100 17/17 A2999 RMK AO2 SLP152 T01670167
Traffic Incident Summary
Active as of:
Severity:
Category:
InformationThere was an issue retrieving the traffic information for this location. Please try a different location or try again shortly.
Advertisements
Track Severe Weather on mobile